createdAt,value
2022-08-11T00:00:40.342Z,43.60
2022-08-11T00:03:06.769Z,43.53
2022-08-11T00:05:33.117Z,43.51
2022-08-11T00:07:59.511Z,43.53
2022-08-11T00:10:25.889Z,43.50
2022-08-11T00:12:52.306Z,43.66
2022-08-11T00:15:18.690Z,43.72
2022-08-11T00:17:45.072Z,43.55
2022-08-11T00:20:16.273Z,43.44
2022-08-11T00:22:38.010Z,43.50
2022-08-11T00:25:04.221Z,43.55
2022-08-11T00:27:30.611Z,43.44
2022-08-11T00:29:57.013Z,43.43
2022-08-11T00:32:23.407Z,43.47
2022-08-11T00:34:49.818Z,43.47
2022-08-11T00:37:16.221Z,43.43
2022-08-11T00:39:42.645Z,43.49
2022-08-11T00:42:08.979Z,43.49
2022-08-11T00:44:35.354Z,43.43
2022-08-11T00:47:01.758Z,43.45
2022-08-11T00:49:28.140Z,43.48
2022-08-11T00:52:04.236Z,43.47
2022-08-11T00:54:20.920Z,43.47
2022-08-11T00:56:47.300Z,43.49
2022-08-11T00:59:34.683Z,43.56
2022-08-11T01:01:40.064Z,43.37
2022-08-11T01:04:06.598Z,43.70
2022-08-11T01:06:33.021Z,43.66
2022-08-11T01:08:59.425Z,43.40
2022-08-11T01:11:25.808Z,43.40
2022-08-11T01:13:52.194Z,43.39
2022-08-11T01:16:18.574Z,43.34
2022-08-11T01:18:44.966Z,43.35
2022-08-11T01:21:11.336Z,43.36
2022-08-11T01:23:37.713Z,43.34
2022-08-11T01:26:04.180Z,43.33
2022-08-11T01:28:30.566Z,43.31
2022-08-11T01:30:56.944Z,43.35
2022-08-11T01:33:23.331Z,43.32
2022-08-11T01:35:49.712Z,43.33
2022-08-11T01:38:16.097Z,43.34
2022-08-11T01:40:42.483Z,43.32
2022-08-11T01:43:08.871Z,43.30
2022-08-11T01:45:35.273Z,43.37
2022-08-11T01:48:01.648Z,43.33
2022-08-11T01:50:28.105Z,43.32
2022-08-11T01:52:54.489Z,43.39
2022-08-11T01:55:20.879Z,43.31
2022-08-11T01:57:47.274Z,43.36
2022-08-11T02:00:13.754Z,43.36
2022-08-11T02:02:40.289Z,43.28
2022-08-11T02:05:06.827Z,43.27
2022-08-11T02:07:33.364Z,43.11
2022-08-11T02:09:59.999Z,43.00
2022-08-11T02:12:26.431Z,42.88
2022-08-11T02:14:57.185Z,43.14
2022-08-11T02:17:19.400Z,43.39
2022-08-11T02:19:46.093Z,43.38
2022-08-11T02:22:12.362Z,43.38
2022-08-11T02:24:38.913Z,43.30
2022-08-11T02:27:05.447Z,43.21
2022-08-11T02:29:31.981Z,43.15
2022-08-11T02:32:14.668Z,43.18
2022-08-11T02:34:25.051Z,43.14
2022-08-11T02:36:51.482Z,43.09
2022-08-11T02:39:18.054Z,43.04
2022-08-11T02:41:46.129Z,42.91
2022-08-11T02:44:10.894Z,42.94
2022-08-11T02:46:37.347Z,42.95
2022-08-11T02:49:03.784Z,42.98
2022-08-11T02:51:30.215Z,42.99
2022-08-11T02:53:58.303Z,42.97
2022-08-11T02:56:23.110Z,42.93
2022-08-11T02:58:49.544Z,42.94
2022-08-11T03:01:15.993Z,42.92
2022-08-11T03:03:42.389Z,42.96
2022-08-11T03:06:08.853Z,43.05
2022-08-11T03:08:35.323Z,43.14
2022-08-11T03:11:01.759Z,43.09
2022-08-11T03:13:28.291Z,43.11
2022-08-11T03:15:54.825Z,43.10
2022-08-11T03:18:21.464Z,43.08
2022-08-11T03:20:47.901Z,43.05
2022-08-11T03:23:19.522Z,43.05
2022-08-11T03:25:40.969Z,43.07
2022-08-11T03:28:07.515Z,42.96
2022-08-11T03:30:34.044Z,43.00
2022-08-11T03:33:00.578Z,42.95
2022-08-11T03:35:27.040Z,42.90
2022-08-11T03:37:53.475Z,42.88
2022-08-11T03:40:19.981Z,42.91
2022-08-11T03:42:46.518Z,43.01
2022-08-11T03:45:12.950Z,42.92
2022-08-11T03:47:39.487Z,42.92
2022-08-11T03:50:06.020Z,42.86
2022-08-11T03:52:32.578Z,42.79
2022-08-11T03:54:58.992Z,42.83
2022-08-11T03:57:25.526Z,42.79
2022-08-11T03:59:52.063Z,42.68
2022-08-11T04:02:18.598Z,42.67
2022-08-11T04:04:45.231Z,42.68
2022-08-11T04:07:11.568Z,42.69
2022-08-11T04:09:40.252Z,44.09
2022-08-11T04:12:06.685Z,43.22
2022-08-11T04:14:33.220Z,43.18
2022-08-11T04:16:59.646Z,43.07
2022-08-11T04:19:26.072Z,43.34
2022-08-11T04:21:52.506Z,43.40
2022-08-11T04:24:38.518Z,43.42
2022-08-11T04:26:45.490Z,43.48
2022-08-11T04:29:12.023Z,43.52
2022-08-11T04:31:48.839Z,43.49
2022-08-11T04:34:04.863Z,43.44
2022-08-11T04:36:31.252Z,43.40
2022-08-11T04:38:57.630Z,43.30
2022-08-11T04:41:24.086Z,43.28
2022-08-11T04:44:02.750Z,43.21
2022-08-11T04:46:16.876Z,43.27
2022-08-11T04:48:43.272Z,43.23
2022-08-11T04:51:17.229Z,43.32
2022-08-11T04:53:36.037Z,43.25
2022-08-11T04:56:02.426Z,43.24
2022-08-11T04:58:29.991Z,43.22
2022-08-11T05:00:55.235Z,43.18
2022-08-11T05:03:21.608Z,43.21
2022-08-11T05:05:56.423Z,43.29
2022-08-11T05:08:15.299Z,43.29
2022-08-11T05:10:43.085Z,43.37
2022-08-11T05:13:07.297Z,43.37
2022-08-11T05:15:42.602Z,43.34
2022-08-11T05:18:00.071Z,43.32
2022-08-11T05:20:26.452Z,43.19
2022-08-11T05:22:52.830Z,43.29
2022-08-11T05:26:42.908Z,43.52
2022-08-11T05:27:45.628Z,43.63
2022-08-11T05:30:13.701Z,43.58
2022-08-11T05:32:38.502Z,43.65
2022-08-11T05:35:04.890Z,43.55
2022-08-11T05:37:31.266Z,43.53
2022-08-11T05:39:57.817Z,43.54
2022-08-11T05:42:30.357Z,43.60
2022-08-11T05:44:52.647Z,43.65
2022-08-11T05:47:19.120Z,43.63
2022-08-11T05:49:45.504Z,43.70
2022-08-11T05:52:13.059Z,43.80
2022-08-11T05:54:38.333Z,43.86
2022-08-11T05:57:04.754Z,43.99
2022-08-11T05:59:31.146Z,44.08
2022-08-11T06:01:57.637Z,44.10
2022-08-11T06:04:24.042Z,44.24
2022-08-11T06:06:50.466Z,44.30
2022-08-11T06:09:16.906Z,44.46
2022-08-11T06:11:44.993Z,44.62
2022-08-11T06:14:09.794Z,44.73
2022-08-11T06:16:36.220Z,44.69
2022-08-11T06:19:02.656Z,44.76
2022-08-11T06:21:29.086Z,44.62
2022-08-11T06:23:55.516Z,44.69
2022-08-11T06:26:21.995Z,44.51
2022-08-11T06:28:48.445Z,44.64
2022-08-11T06:31:14.872Z,44.61
2022-08-11T06:33:41.301Z,44.59
2022-08-11T06:36:07.768Z,44.62
2022-08-11T06:38:34.209Z,44.56
2022-08-11T06:41:00.698Z,44.55
2022-08-11T06:43:27.150Z,44.57
2022-08-11T06:45:53.587Z,44.46
2022-08-11T06:48:20.061Z,44.34
2022-08-11T06:50:48.265Z,44.57
2022-08-11T06:53:12.913Z,44.53
2022-08-11T06:55:58.251Z,44.50
2022-08-11T06:58:05.787Z,44.37
2022-08-11T07:00:33.109Z,44.43
2022-08-11T07:02:58.642Z,44.56
2022-08-11T07:05:25.081Z,44.59
2022-08-11T07:07:51.596Z,44.69
2022-08-11T07:10:21.243Z,45.01
2022-08-11T07:16:10.717Z,45.19
2022-08-11T07:17:57.988Z,45.04
2022-08-11T07:20:24.440Z,45.11
2022-08-11T07:22:50.824Z,44.98
2022-08-11T07:25:17.301Z,44.83
2022-08-11T07:27:43.692Z,44.83
2022-08-11T07:30:10.138Z,44.72
2022-08-11T07:32:36.687Z,44.79
2022-08-11T07:35:03.009Z,44.42
2022-08-11T07:37:29.437Z,44.61
2022-08-11T07:39:55.986Z,44.45
2022-08-11T07:42:23.802Z,44.09
2022-08-11T07:44:48.741Z,44.06
2022-08-11T07:47:15.173Z,44.18
2022-08-11T07:49:43.274Z,44.10
2022-08-11T07:52:08.015Z,43.92
2022-08-11T07:54:34.440Z,43.79
2022-08-11T07:57:08.998Z,43.86
2022-08-11T08:00:04.277Z,43.89
2022-08-11T08:01:53.861Z,43.82
2022-08-11T08:04:20.238Z,43.87
2022-08-11T08:06:46.684Z,43.59
2022-08-11T08:09:13.178Z,43.71
2022-08-11T08:11:39.629Z,43.69
2022-08-11T08:14:06.059Z,43.63
2022-08-11T08:16:32.469Z,43.79
2022-08-11T08:18:58.893Z,43.68
2022-08-11T08:21:25.340Z,43.64
2022-08-11T08:23:54.028Z,43.77
2022-08-11T08:26:18.202Z,43.73
2022-08-11T08:28:44.663Z,43.41
2022-08-11T08:31:11.074Z,43.43
2022-08-11T08:33:37.495Z,43.22
2022-08-11T08:36:03.908Z,43.50
2022-08-11T08:38:30.325Z,43.37
2022-08-11T08:40:56.843Z,43.66
2022-08-11T08:43:23.156Z,43.62
2022-08-11T08:45:49.575Z,43.58
2022-08-11T08:48:17.211Z,43.36
2022-08-11T08:50:42.418Z,43.37
2022-08-11T08:53:08.870Z,43.36
2022-08-11T08:55:35.282Z,43.18
2022-08-11T08:58:01.783Z,42.93
2022-08-11T09:00:28.209Z,43.07
2022-08-11T09:02:54.618Z,42.95
2022-08-11T09:05:21.036Z,42.82
2022-08-11T09:13:15.810Z,42.79
2022-08-11T09:15:42.211Z,42.64
2022-08-11T09:18:08.642Z,42.56
2022-08-11T09:20:35.055Z,42.51
2022-08-11T09:25:27.888Z,42.33
2022-08-11T09:27:54.342Z,42.47
2022-08-11T09:30:20.770Z,42.29
2022-08-11T09:32:49.587Z,42.45
2022-08-11T09:35:16.000Z,42.47
2022-08-11T09:37:55.282Z,42.49
2022-08-11T09:40:08.836Z,42.47
2022-08-11T09:42:35.252Z,42.63
2022-08-11T09:45:02.029Z,42.66
2022-08-11T09:47:28.087Z,42.85
2022-08-11T09:49:54.536Z,43.08
2022-08-11T09:52:20.972Z,42.77
2022-08-11T09:54:48.222Z,42.54
2022-08-11T09:57:13.812Z,42.89
2022-08-11T09:59:40.224Z,42.89
2022-08-11T10:02:06.639Z,42.77
2022-08-11T10:04:33.095Z,42.70
2022-08-11T10:06:59.498Z,42.41
2022-08-11T10:09:25.900Z,42.60
2022-08-11T10:11:57.705Z,42.45
2022-08-11T10:14:32.597Z,42.60
2022-08-11T10:16:45.330Z,42.44
2022-08-11T10:19:11.740Z,42.21
2022-08-11T10:21:38.155Z,42.26
2022-08-11T10:24:05.569Z,42.30
2022-08-11T10:26:32.139Z,42.21
2022-08-11T10:29:12.552Z,42.39
2022-08-11T10:31:23.905Z,42.18
2022-08-11T10:33:59.547Z,42.04
2022-08-11T10:36:17.023Z,42.23
2022-08-11T10:38:43.167Z,42.34
2022-08-11T10:44:02.786Z,42.25
2022-08-11T10:46:30.000Z,42.31
2022-08-11T10:48:47.664Z,42.27
2022-08-11T10:51:14.177Z,42.24
2022-08-11T10:53:40.546Z,42.23
2022-08-11T10:56:06.975Z,42.21
2022-08-11T10:58:33.464Z,42.38
2022-08-11T11:00:59.871Z,42.36
2022-08-11T11:03:26.272Z,42.27
2022-08-11T11:06:12.675Z,42.27
2022-08-11T11:08:19.076Z,42.24
2022-08-11T11:10:45.492Z,42.35
2022-08-11T11:13:11.903Z,42.31
2022-08-11T11:15:38.334Z,42.32
2022-08-11T11:18:04.772Z,42.18
2022-08-11T11:20:35.776Z,42.27
2022-08-11T11:22:57.576Z,42.17
2022-08-11T11:25:24.004Z,42.09
2022-08-11T11:27:50.422Z,41.95
2022-08-11T11:30:16.830Z,41.92
2022-08-11T11:32:47.641Z,41.86
2022-08-11T11:35:09.663Z,41.84
2022-08-11T11:37:36.078Z,41.80
2022-08-11T11:40:02.517Z,42.01
2022-08-11T11:42:28.990Z,42.20
2022-08-11T11:44:56.388Z,42.15
2022-08-11T11:47:22.011Z,42.30
2022-08-11T11:49:48.206Z,42.52
2022-08-11T11:52:14.642Z,42.54
2022-08-11T11:54:41.107Z,42.57
2022-08-11T11:57:07.497Z,42.61
2022-08-11T11:59:33.922Z,42.72
2022-08-11T12:02:00.355Z,42.60
2022-08-11T12:04:26.762Z,42.77
2022-08-11T12:06:53.170Z,42.65
2022-08-11T12:09:19.595Z,42.50
2022-08-11T12:11:46.039Z,42.76
2022-08-11T12:14:12.513Z,42.70
2022-08-11T12:16:38.918Z,42.60
2022-08-11T12:19:05.339Z,42.57
2022-08-11T12:21:31.753Z,42.92
2022-08-11T12:24:02.243Z,42.85
2022-08-11T12:26:27.329Z,42.84
2022-08-11T12:28:51.024Z,42.89
2022-08-11T12:31:17.457Z,42.91
2022-08-11T12:33:43.868Z,42.86
2022-08-11T12:36:10.272Z,42.76
2022-08-11T12:38:36.699Z,43.10
2022-08-11T12:41:18.657Z,43.07
2022-08-11T12:43:37.901Z,43.12
2022-08-11T12:45:56.058Z,43.29
2022-08-11T12:48:58.412Z,43.37
2022-08-11T12:50:48.917Z,43.50
2022-08-11T12:53:15.427Z,43.59
2022-08-11T12:55:41.836Z,43.64
2022-08-11T12:58:08.296Z,43.70
2022-08-11T13:00:34.933Z,43.71
2022-08-11T13:03:01.373Z,43.69
2022-08-11T13:05:27.780Z,43.66
2022-08-11T13:07:54.450Z,43.83
2022-08-11T13:10:20.873Z,43.69
2022-08-11T13:12:47.306Z,43.53
2022-08-11T13:15:13.844Z,43.71
2022-08-11T13:17:44.003Z,43.86
2022-08-11T13:20:06.816Z,43.83
2022-08-11T13:22:33.424Z,43.86
2022-08-11T13:24:59.766Z,43.86
2022-08-11T13:27:26.321Z,43.86
2022-08-11T13:29:52.736Z,43.75
2022-08-11T13:32:20.423Z,43.72
2022-08-11T13:34:45.525Z,43.66
2022-08-11T13:37:11.944Z,43.51
2022-08-11T13:39:38.402Z,43.66
2022-08-11T13:42:04.743Z,43.54
2022-08-11T13:44:31.366Z,43.31
2022-08-11T13:46:57.811Z,42.93
2022-08-11T13:49:24.209Z,42.79
2022-08-11T13:51:50.595Z,42.21
2022-08-11T13:54:16.989Z,42.06
2022-08-11T13:56:43.381Z,42.24
2022-08-11T13:59:09.766Z,42.28
2022-08-11T14:02:22.864Z,42.08
2022-08-11T14:04:30.516Z,42.74
2022-08-11T14:06:29.099Z,42.40
2022-08-11T14:08:55.480Z,41.76
2022-08-11T14:14:04.144Z,40.94
2022-08-11T14:16:30.537Z,41.23
2022-08-11T14:18:56.999Z,41.57
2022-08-11T14:21:23.390Z,41.58
2022-08-11T14:23:49.818Z,42.24
2022-08-11T14:26:16.193Z,41.66
2022-08-11T14:28:44.979Z,42.05
2022-08-11T14:31:08.963Z,41.93
2022-08-11T14:33:58.122Z,41.66
2022-08-11T14:36:01.729Z,41.41
2022-08-11T14:38:28.163Z,41.48
2022-08-11T14:40:54.675Z,41.50
2022-08-11T14:43:21.063Z,41.88
2022-08-11T14:45:57.788Z,41.54
2022-08-11T14:48:13.836Z,41.60
2022-08-11T14:50:40.214Z,41.59
2022-08-11T14:53:06.605Z,40.75
2022-08-11T14:55:32.988Z,41.25
2022-08-11T14:57:59.497Z,41.40
2022-08-11T15:00:25.883Z,41.70
2022-08-11T15:02:52.267Z,41.76
2022-08-11T15:05:18.653Z,42.19
2022-08-11T15:07:45.227Z,42.16
2022-08-11T15:10:14.299Z,41.79
2022-08-11T15:12:40.428Z,42.61
2022-08-11T15:15:06.858Z,42.44
2022-08-11T15:17:43.703Z,42.27
2022-08-11T15:19:59.764Z,42.88
2022-08-11T15:22:28.080Z,42.71
2022-08-11T15:24:52.438Z,43.01
2022-08-11T15:27:18.824Z,43.08
2022-08-11T15:29:45.205Z,43.11
2022-08-11T15:32:13.540Z,43.40
2022-08-11T15:34:37.990Z,43.24
2022-08-11T15:37:04.397Z,43.30
2022-08-11T15:39:30.858Z,43.18
2022-08-11T15:41:58.869Z,42.95
2022-08-11T15:44:38.747Z,43.23
2022-08-11T15:46:49.966Z,43.08
2022-08-11T15:49:21.988Z,43.02
2022-08-11T15:51:42.772Z,42.94
2022-08-11T15:54:09.610Z,42.93
2022-08-11T15:56:35.619Z,42.79
2022-08-11T15:59:10.720Z,42.67
2022-08-11T16:01:28.446Z,42.69
2022-08-11T16:04:07.356Z,43.05
2022-08-11T16:06:23.083Z,43.27
2022-08-11T16:08:47.644Z,43.18
2022-08-11T16:11:14.027Z,42.63
2022-08-11T16:13:40.415Z,42.29
2022-08-11T16:16:06.803Z,42.23
2022-08-11T16:18:33.189Z,42.04
2022-08-11T16:20:59.658Z,43.35
2022-08-11T16:23:26.041Z,44.17
2022-08-11T16:27:04.750Z,44.05
2022-08-11T16:28:18.837Z,43.71
2022-08-11T16:30:45.222Z,43.38
2022-08-11T16:33:47.947Z,43.09
2022-08-11T16:35:38.063Z,43.54
2022-08-11T16:38:04.432Z,43.42
2022-08-11T16:40:30.817Z,43.34
2022-08-11T16:43:09.070Z,43.30
2022-08-11T16:45:23.617Z,43.21
2022-08-11T16:48:03.142Z,43.02
2022-08-11T16:50:16.365Z,42.89
2022-08-11T16:52:42.745Z,42.66
2022-08-11T16:55:09.134Z,42.59
2022-08-11T16:57:35.508Z,42.41
2022-08-11T17:00:02.848Z,42.18
2022-08-11T17:02:28.274Z,42.09
2022-08-11T17:04:54.663Z,41.94
2022-08-11T17:07:40.524Z,41.86
2022-08-11T17:09:47.447Z,41.75
2022-08-11T17:12:13.834Z,41.73
2022-08-11T17:14:40.215Z,41.67
2022-08-11T17:17:06.701Z,41.70
2022-08-11T17:20:39.681Z,41.66
2022-08-11T17:21:59.459Z,41.58
2022-08-11T17:24:25.847Z,41.46
2022-08-11T17:26:52.257Z,41.57
2022-08-11T17:29:18.642Z,41.44
2022-08-11T17:31:47.248Z,41.41
2022-08-11T17:34:13.662Z,41.31
2022-08-11T17:36:45.148Z,41.41
2022-08-11T17:39:06.516Z,41.31
2022-08-11T17:41:32.892Z,41.31
2022-08-11T17:43:59.278Z,41.39
2022-08-11T17:46:25.664Z,41.36
2022-08-11T17:48:52.042Z,41.31
2022-08-11T17:51:18.511Z,41.30
2022-08-11T17:54:02.155Z,41.28
2022-08-11T17:56:11.323Z,41.32
2022-08-11T17:58:37.718Z,41.29
2022-08-11T18:01:09.491Z,41.30
2022-08-11T18:03:30.473Z,41.26
2022-08-11T18:05:56.883Z,41.20
2022-08-11T18:08:23.261Z,41.10
2022-08-11T18:10:49.713Z,41.04
2022-08-11T18:13:16.079Z,40.99
2022-08-11T18:15:50.152Z,40.93
2022-08-11T18:18:08.844Z,40.88
2022-08-11T18:20:35.235Z,40.83
2022-08-11T18:23:01.613Z,40.76
2022-08-11T18:25:27.998Z,40.73
2022-08-11T18:27:54.505Z,40.70
2022-08-11T18:30:20.883Z,40.68
2022-08-11T18:32:49.933Z,40.64
2022-08-11T18:35:13.664Z,40.64
2022-08-11T18:37:40.185Z,40.60
2022-08-11T18:40:06.488Z,40.57
2022-08-11T18:42:32.872Z,40.59
2022-08-11T18:44:59.255Z,40.49
2022-08-11T18:47:28.326Z,40.52
2022-08-11T18:50:02.029Z,40.48
2022-08-11T18:52:18.445Z,40.47
2022-08-11T18:54:49.953Z,40.46
2022-08-11T18:57:11.210Z,40.50
2022-08-11T18:59:37.595Z,40.47
2022-08-11T19:02:03.973Z,40.48
2022-08-11T19:04:30.719Z,40.41
2022-08-11T19:06:56.749Z,40.51
2022-08-11T19:09:23.127Z,40.57
2022-08-11T19:11:49.768Z,40.55
2022-08-11T19:14:15.893Z,40.54
2022-08-11T19:16:42.279Z,40.51
2022-08-11T19:19:08.662Z,40.64
2022-08-11T19:21:35.041Z,40.67
2022-08-11T19:24:01.420Z,40.65
2022-08-11T19:26:27.806Z,40.57
2022-08-11T19:28:54.312Z,40.60
2022-08-11T19:31:20.712Z,40.60
2022-08-11T19:33:57.337Z,40.60
2022-08-11T19:36:13.487Z,40.59
2022-08-11T19:38:39.874Z,40.54
2022-08-11T19:41:06.271Z,40.54
2022-08-11T19:43:32.665Z,40.54
2022-08-11T19:45:59.149Z,40.59
2022-08-11T19:48:32.177Z,40.50
2022-08-11T19:50:51.920Z,40.53
2022-08-11T19:53:18.311Z,40.57
2022-08-11T19:55:44.709Z,40.57
2022-08-11T19:58:11.205Z,40.55
2022-08-11T20:00:37.580Z,40.53
2022-08-11T20:03:09.123Z,40.56
2022-08-11T20:05:30.377Z,40.47
2022-08-11T20:07:56.760Z,40.48
2022-08-11T20:10:23.140Z,40.49
2022-08-11T20:12:49.520Z,40.50
2022-08-11T20:15:15.931Z,40.50
2022-08-11T20:17:42.306Z,40.47
2022-08-11T20:20:08.695Z,40.47
2022-08-11T20:22:35.191Z,40.44
2022-08-11T20:25:01.470Z,40.41
2022-08-11T20:27:27.858Z,40.42
2022-08-11T20:29:54.252Z,40.45
2022-08-11T20:32:20.636Z,40.49
2022-08-11T20:34:47.010Z,40.47
2022-08-11T20:37:13.400Z,40.46
2022-08-11T20:39:39.808Z,40.44
2022-08-11T20:42:06.160Z,40.50
2022-08-11T20:44:32.538Z,40.54
2022-08-11T20:46:58.932Z,40.46
2022-08-11T20:49:25.309Z,40.48
2022-08-11T20:51:52.969Z,40.51
2022-08-11T20:54:18.076Z,40.48
2022-08-11T20:56:44.483Z,40.54
2022-08-11T20:59:16.743Z,40.57
2022-08-11T21:01:38.955Z,40.48
2022-08-11T21:04:03.624Z,40.53
2022-08-11T21:06:32.793Z,40.49
2022-08-11T21:08:56.393Z,40.53
2022-08-11T21:11:27.663Z,40.50
2022-08-11T21:13:51.423Z,40.53
2022-08-11T21:16:16.359Z,40.55
2022-08-11T21:18:41.928Z,40.59
2022-08-11T21:21:08.319Z,40.62
2022-08-11T21:23:34.709Z,40.56
2022-08-11T21:26:01.159Z,40.54
2022-08-11T21:28:27.549Z,40.57
2022-08-11T21:30:57.385Z,40.60
2022-08-11T21:33:20.697Z,40.60
2022-08-11T21:35:47.081Z,40.61
2022-08-11T21:38:13.484Z,40.62
2022-08-11T21:40:39.973Z,40.69
2022-08-11T21:43:06.358Z,40.66
2022-08-11T21:45:32.743Z,40.69
2022-08-11T21:48:01.308Z,40.77
2022-08-11T21:50:25.513Z,40.74
2022-08-11T21:52:51.900Z,40.79
2022-08-11T21:55:18.289Z,40.73
2022-08-11T21:57:48.021Z,40.77
2022-08-11T22:00:11.060Z,40.75
2022-08-11T22:02:37.466Z,40.75
2022-08-11T22:05:03.870Z,40.83
2022-08-11T22:07:30.241Z,40.83
2022-08-11T22:09:56.649Z,40.80
2022-08-11T22:12:29.798Z,40.78
2022-08-11T22:14:49.411Z,40.83
2022-08-11T22:17:15.859Z,40.85
2022-08-11T22:19:42.258Z,40.83
2022-08-11T22:22:08.653Z,40.83
2022-08-11T22:24:35.031Z,40.79
2022-08-11T22:27:01.417Z,40.86
2022-08-11T22:29:50.338Z,40.91
2022-08-11T22:31:54.180Z,40.89
2022-08-11T22:34:20.562Z,40.91
2022-08-11T22:36:46.946Z,40.85
2022-08-11T22:39:13.380Z,40.89
2022-08-11T22:41:39.710Z,40.94
2022-08-11T22:44:06.095Z,40.97
2022-08-11T22:46:32.469Z,40.92
2022-08-11T22:48:58.883Z,40.89
2022-08-11T22:51:25.262Z,40.92
2022-08-11T22:53:57.521Z,40.97
2022-08-11T22:56:18.034Z,41.00
2022-08-11T22:58:44.416Z,40.98
2022-08-11T23:01:10.839Z,41.03
2022-08-11T23:03:38.582Z,40.99
2022-08-11T23:06:03.581Z,41.05
2022-08-11T23:08:29.963Z,41.09
2022-08-11T23:10:56.351Z,41.03
2022-08-11T23:13:22.744Z,41.05
2022-08-11T23:15:49.112Z,41.10
2022-08-11T23:18:15.500Z,41.06
2022-08-11T23:20:49.346Z,41.04
2022-08-11T23:23:08.267Z,41.14
2022-08-11T23:25:34.650Z,41.05
2022-08-11T23:28:01.035Z,41.10
2022-08-11T23:30:27.453Z,41.08
2022-08-11T23:32:53.845Z,41.23
2022-08-11T23:35:40.462Z,41.07
2022-08-11T23:37:46.638Z,41.15
2022-08-11T23:40:13.016Z,41.18
2022-08-11T23:42:39.569Z,41.15
2022-08-11T23:45:06.510Z,41.25
2022-08-11T23:47:32.222Z,41.18
2022-08-11T23:49:58.633Z,41.17
2022-08-11T23:52:25.022Z,41.13
2022-08-11T23:54:51.455Z,41.18
2022-08-11T23:57:17.853Z,41.18
2022-08-11T23:59:44.228Z,41.21
